Aviation Digital Data Service (ADDS)

Output produced by METARs form (1648 UTC 30 October 2020)
found at http://www.aviationweather.gov/metar/data/
 
KILM 301553Z 31014KT 10SM BKN036 22/13 A2991 RMK AO2 SLP128 T02220128
KILM 301124Z 3012/3112 27015G25KT P6SM SKC 
     FM301600 32014G20KT P6SM SKC 
     FM302200 35009KT P6SM SKC 
     FM310500 03008KT P6SM SKC